sensor_id;sensor_type;location;lat;lon;timestamp;temperature;humidity
66726;HTU21D;53638;51.062;5.804;2024-03-08T00:00:05;6.01;-6.00
66726;HTU21D;53638;51.062;5.804;2024-03-08T00:02:39;6.00;-6.00
66726;HTU21D;53638;51.062;5.804;2024-03-08T00:05:06;6.00;-6.00
66726;HTU21D;53638;51.062;5.804;2024-03-08T00:07:35;5.97;-6.00
66726;HTU21D;53638;51.062;5.804;2024-03-08T00:10:04;5.93;-6.00
66726;HTU21D;53638;51.062;5.804;2024-03-08T00:12:30;5.89;-6.00
66726;HTU21D;53638;51.062;5.804;2024-03-08T00:14:58;5.84;-6.00
66726;HTU21D;53638;51.062;5.804;2024-03-08T00:17:27;5.80;-6.00
66726;HTU21D;53638;51.062;5.804;2024-03-08T00:19:54;5.81;-6.00
66726;HTU21D;53638;51.062;5.804;2024-03-08T00:22:20;5.80;-6.00
66726;HTU21D;53638;51.062;5.804;2024-03-08T00:24:47;5.77;-6.00
66726;HTU21D;53638;51.062;5.804;2024-03-08T00:27:16;5.72;-6.00
66726;HTU21D;53638;51.062;5.804;2024-03-08T00:29:42;5.72;-6.00
66726;HTU21D;53638;51.062;5.804;2024-03-08T00:32:08;5.69;-6.00
66726;HTU21D;53638;51.062;5.804;2024-03-08T00:34:37;5.69;-6.00
66726;HTU21D;53638;51.062;5.804;2024-03-08T00:37:04;5.65;-6.00
66726;HTU21D;53638;51.062;5.804;2024-03-08T00:39:30;5.65;-6.00
66726;HTU21D;53638;51.062;5.804;2024-03-08T00:41:56;5.67;-6.00
66726;HTU21D;53638;51.062;5.804;2024-03-08T00:44:22;5.63;-6.00
66726;HTU21D;53638;51.062;5.804;2024-03-08T00:46:49;5.57;-6.00
66726;HTU21D;53638;51.062;5.804;2024-03-08T00:49:15;5.52;-6.00
66726;HTU21D;53638;51.062;5.804;2024-03-08T00:51:41;5.52;-6.00
66726;HTU21D;53638;51.062;5.804;2024-03-08T00:54:07;5.51;-6.00
66726;HTU21D;53638;51.062;5.804;2024-03-08T00:56:33;5.48;-6.00
66726;HTU21D;53638;51.062;5.804;2024-03-08T00:59:03;5.43;-6.00
66726;HTU21D;53638;51.062;5.804;2024-03-08T01:01:29;5.41;-6.00
66726;HTU21D;53638;51.062;5.804;2024-03-08T01:03:57;5.40;-6.00
66726;HTU21D;53638;51.062;5.804;2024-03-08T01:06:24;5.34;-6.00
66726;HTU21D;53638;51.062;5.804;2024-03-08T01:08:50;5.31;-6.00
66726;HTU21D;53638;51.062;5.804;2024-03-08T01:11:18;5.26;-6.00
66726;HTU21D;53638;51.062;5.804;2024-03-08T01:13:45;5.24;-6.00
66726;HTU21D;53638;51.062;5.804;2024-03-08T01:16:13;5.25;-6.00
66726;HTU21D;53638;51.062;5.804;2024-03-08T01:18:39;5.23;-6.00
66726;HTU21D;53638;51.062;5.804;2024-03-08T01:21:07;5.23;-6.00
66726;HTU21D;53638;51.062;5.804;2024-03-08T01:23:33;5.23;-6.00
66726;HTU21D;53638;51.062;5.804;2024-03-08T01:26:00;5.21;-6.00
66726;HTU21D;53638;51.062;5.804;2024-03-08T01:28:28;5.22;-6.00
66726;HTU21D;53638;51.062;5.804;2024-03-08T01:30:54;5.30;-6.00
66726;HTU21D;53638;51.062;5.804;2024-03-08T01:33:23;5.34;-6.00
66726;HTU21D;53638;51.062;5.804;2024-03-08T01:35:49;5.33;-6.00
66726;HTU21D;53638;51.062;5.804;2024-03-08T01:38:15;5.34;-6.00
66726;HTU21D;53638;51.062;5.804;2024-03-08T01:40:41;5.32;-6.00
66726;HTU21D;53638;51.062;5.804;2024-03-08T01:43:24;5.31;-6.00
66726;HTU21D;53638;51.062;5.804;2024-03-08T01:45:51;5.27;-6.00
66726;HTU21D;53638;51.062;5.804;2024-03-08T01:48:17;5.23;-6.00
66726;HTU21D;53638;51.062;5.804;2024-03-08T01:50:45;5.15;-6.00
66726;HTU21D;53638;51.062;5.804;2024-03-08T01:53:12;5.09;-6.00
66726;HTU21D;53638;51.062;5.804;2024-03-08T01:55:39;5.10;-6.00
66726;HTU21D;53638;51.062;5.804;2024-03-08T01:58:05;5.10;-6.00
66726;HTU21D;53638;51.062;5.804;2024-03-08T02:00:35;5.09;-6.00
66726;HTU21D;53638;51.062;5.804;2024-03-08T02:03:01;5.06;-6.00
66726;HTU21D;53638;51.062;5.804;2024-03-08T02:05:28;5.04;-6.00
66726;HTU21D;53638;51.062;5.804;2024-03-08T02:07:54;5.01;-6.00
66726;HTU21D;53638;51.062;5.804;2024-03-08T02:10:20;5.01;-6.00
66726;HTU21D;53638;51.062;5.804;2024-03-08T02:12:48;5.01;-6.00
66726;HTU21D;53638;51.062;5.804;2024-03-08T02:15:14;5.00;-6.00
66726;HTU21D;53638;51.062;5.804;2024-03-08T02:17:40;5.00;-6.00
66726;HTU21D;53638;51.062;5.804;2024-03-08T02:20:07;4.94;-6.00
66726;HTU21D;53638;51.062;5.804;2024-03-08T02:22:36;4.86;-6.00
66726;HTU21D;53638;51.062;5.804;2024-03-08T02:25:02;4.79;-6.00
66726;HTU21D;53638;51.062;5.804;2024-03-08T02:27:29;4.78;-6.00
66726;HTU21D;53638;51.062;5.804;2024-03-08T02:29:56;4.73;-6.00
66726;HTU21D;53638;51.062;5.804;2024-03-08T02:32:23;4.78;-6.00
66726;HTU21D;53638;51.062;5.804;2024-03-08T02:34:50;4.78;-6.00
66726;HTU21D;53638;51.062;5.804;2024-03-08T02:37:17;4.79;-6.00
66726;HTU21D;53638;51.062;5.804;2024-03-08T02:39:43;4.81;-6.00
66726;HTU21D;53638;51.062;5.804;2024-03-08T02:42:09;4.78;-6.00
66726;HTU21D;53638;51.062;5.804;2024-03-08T02:44:35;4.69;-6.00
66726;HTU21D;53638;51.062;5.804;2024-03-08T02:47:01;4.71;-6.00
66726;HTU21D;53638;51.062;5.804;2024-03-08T02:49:27;4.67;-6.00
66726;HTU21D;53638;51.062;5.804;2024-03-08T02:51:53;4.69;-6.00
66726;HTU21D;53638;51.062;5.804;2024-03-08T02:54:19;4.72;-6.00
66726;HTU21D;53638;51.062;5.804;2024-03-08T02:56:49;4.75;-6.00
66726;HTU21D;53638;51.062;5.804;2024-03-08T02:59:16;4.69;-6.00
66726;HTU21D;53638;51.062;5.804;2024-03-08T03:01:43;4.68;-6.00
66726;HTU21D;53638;51.062;5.804;2024-03-08T03:04:11;4.66;-6.00
66726;HTU21D;53638;51.062;5.804;2024-03-08T03:06:37;4.62;-6.00
66726;HTU21D;53638;51.062;5.804;2024-03-08T03:09:03;4.59;-6.00
66726;HTU21D;53638;51.062;5.804;2024-03-08T03:11:32;4.51;-6.00
66726;HTU21D;53638;51.062;5.804;2024-03-08T03:13:58;4.44;-6.00
66726;HTU21D;53638;51.062;5.804;2024-03-08T03:16:24;4.42;-6.00
66726;HTU21D;53638;51.062;5.804;2024-03-08T03:18:50;4.45;-6.00
66726;HTU21D;53638;51.062;5.804;2024-03-08T03:21:16;4.42;-6.00
66726;HTU21D;53638;51.062;5.804;2024-03-08T03:23:43;4.44;-6.00
66726;HTU21D;53638;51.062;5.804;2024-03-08T03:26:09;4.42;-6.00
66726;HTU21D;53638;51.062;5.804;2024-03-08T03:28:38;4.46;-6.00
66726;HTU21D;53638;51.062;5.804;2024-03-08T03:31:06;4.41;-6.00
66726;HTU21D;53638;51.062;5.804;2024-03-08T03:33:32;4.37;-6.00
66726;HTU21D;53638;51.062;5.804;2024-03-08T03:36:00;4.34;-6.00
66726;HTU21D;53638;51.062;5.804;2024-03-08T03:38:27;4.30;-6.00
66726;HTU21D;53638;51.062;5.804;2024-03-08T03:40:53;4.26;-6.00
66726;HTU21D;53638;51.062;5.804;2024-03-08T03:43:24;4.27;-6.00
66726;HTU21D;53638;51.062;5.804;2024-03-08T03:45:50;4.20;-6.00
66726;HTU21D;53638;51.062;5.804;2024-03-08T03:48:16;4.19;-6.00
66726;HTU21D;53638;51.062;5.804;2024-03-08T03:50:42;4.16;-6.00
66726;HTU21D;53638;51.062;5.804;2024-03-08T03:53:08;4.15;-6.00
66726;HTU21D;53638;51.062;5.804;2024-03-08T03:55:35;4.12;-6.00
66726;HTU21D;53638;51.062;5.804;2024-03-08T03:58:02;4.06;-6.00
66726;HTU21D;53638;51.062;5.804;2024-03-08T04:00:28;4.03;-6.00
66726;HTU21D;53638;51.062;5.804;2024-03-08T04:02:54;4.03;-6.00
66726;HTU21D;53638;51.062;5.804;2024-03-08T04:05:24;4.03;-6.00
66726;HTU21D;53638;51.062;5.804;2024-03-08T04:07:53;4.00;-6.00
66726;HTU21D;53638;51.062;5.804;2024-03-08T04:10:19;3.98;-6.00
66726;HTU21D;53638;51.062;5.804;2024-03-08T04:12:45;3.94;-6.00
66726;HTU21D;53638;51.062;5.804;2024-03-08T04:15:11;3.94;-6.00
66726;HTU21D;53638;51.062;5.804;2024-03-08T04:17:37;3.92;-6.00
66726;HTU21D;53638;51.062;5.804;2024-03-08T04:20:04;3.89;-6.00
66726;HTU21D;53638;51.062;5.804;2024-03-08T04:22:36;3.85;-6.00
66726;HTU21D;53638;51.062;5.804;2024-03-08T04:25:03;3.84;-6.00
66726;HTU21D;53638;51.062;5.804;2024-03-08T04:27:29;3.80;-6.00
66726;HTU21D;53638;51.062;5.804;2024-03-08T04:29:55;3.76;-6.00
66726;HTU21D;53638;51.062;5.804;2024-03-08T04:32:24;3.74;-6.00
66726;HTU21D;53638;51.062;5.804;2024-03-08T04:34:51;3.74;-6.00
66726;HTU21D;53638;51.062;5.804;2024-03-08T04:37:17;3.70;-6.00
66726;HTU21D;53638;51.062;5.804;2024-03-08T04:39:51;3.63;-6.00
66726;HTU21D;53638;51.062;5.804;2024-03-08T04:42:18;3.65;-6.00
66726;HTU21D;53638;51.062;5.804;2024-03-08T04:44:44;3.61;-6.00
66726;HTU21D;53638;51.062;5.804;2024-03-08T04:47:10;3.59;-6.00
66726;HTU21D;53638;51.062;5.804;2024-03-08T04:49:36;3.57;-6.00
66726;HTU21D;53638;51.062;5.804;2024-03-08T04:52:03;3.55;-6.00
66726;HTU21D;53638;51.062;5.804;2024-03-08T04:54:29;3.58;-6.00
66726;HTU21D;53638;51.062;5.804;2024-03-08T04:56:56;3.61;-6.00
66726;HTU21D;53638;51.062;5.804;2024-03-08T04:59:22;3.57;-6.00
66726;HTU21D;53638;51.062;5.804;2024-03-08T05:01:48;3.59;-6.00
66726;HTU21D;53638;51.062;5.804;2024-03-08T05:04:14;3.59;-6.00
66726;HTU21D;53638;51.062;5.804;2024-03-08T05:06:41;3.59;-6.00
66726;HTU21D;53638;51.062;5.804;2024-03-08T05:09:06;3.55;-6.00
66726;HTU21D;53638;51.062;5.804;2024-03-08T05:11:45;3.60;-6.00
66726;HTU21D;53638;51.062;5.804;2024-03-08T05:14:11;3.61;-6.00
66726;HTU21D;53638;51.062;5.804;2024-03-08T05:16:44;3.67;-6.00
66726;HTU21D;53638;51.062;5.804;2024-03-08T05:19:15;3.72;-6.00
66726;HTU21D;53638;51.062;5.804;2024-03-08T05:21:45;3.79;-6.00
66726;HTU21D;53638;51.062;5.804;2024-03-08T05:24:12;3.77;-6.00
66726;HTU21D;53638;51.062;5.804;2024-03-08T05:26:39;3.78;-6.00
66726;HTU21D;53638;51.062;5.804;2024-03-08T05:29:05;3.76;-6.00
66726;HTU21D;53638;51.062;5.804;2024-03-08T05:31:48;3.77;-6.00
66726;HTU21D;53638;51.062;5.804;2024-03-08T05:34:16;3.73;-6.00
66726;HTU21D;53638;51.062;5.804;2024-03-08T05:36:42;3.72;-6.00
66726;HTU21D;53638;51.062;5.804;2024-03-08T05:39:16;3.71;-6.00
66726;HTU21D;53638;51.062;5.804;2024-03-08T05:41:43;3.72;-6.00
66726;HTU21D;53638;51.062;5.804;2024-03-08T05:44:10;3.68;-6.00
66726;HTU21D;53638;51.062;5.804;2024-03-08T05:46:37;3.70;-6.00
66726;HTU21D;53638;51.062;5.804;2024-03-08T05:49:05;3.72;-6.00
66726;HTU21D;53638;51.062;5.804;2024-03-08T05:51:32;3.71;-6.00
66726;HTU21D;53638;51.062;5.804;2024-03-08T05:54:02;3.63;-6.00
66726;HTU21D;53638;51.062;5.804;2024-03-08T05:56:32;3.64;-6.00
66726;HTU21D;53638;51.062;5.804;2024-03-08T05:59:02;3.64;-6.00
66726;HTU21D;53638;51.062;5.804;2024-03-08T06:01:29;3.68;-6.00
66726;HTU21D;53638;51.062;5.804;2024-03-08T06:03:56;3.62;-6.00
66726;HTU21D;53638;51.062;5.804;2024-03-08T06:06:24;3.60;-6.00
66726;HTU21D;53638;51.062;5.804;2024-03-08T06:08:51;3.60;-6.00
66726;HTU21D;53638;51.062;5.804;2024-03-08T06:11:18;3.56;-6.00
66726;HTU21D;53638;51.062;5.804;2024-03-08T06:13:45;3.57;-6.00
66726;HTU21D;53638;51.062;5.804;2024-03-08T06:16:11;3.54;-6.00
66726;HTU21D;53638;51.062;5.804;2024-03-08T06:18:38;3.54;-6.00
66726;HTU21D;53638;51.062;5.804;2024-03-08T06:21:19;3.49;-6.00
66726;HTU21D;53638;51.062;5.804;2024-03-08T06:23:46;3.50;-6.00
66726;HTU21D;53638;51.062;5.804;2024-03-08T06:26:12;3.50;-6.00
66726;HTU21D;53638;51.062;5.804;2024-03-08T06:28:38;3.52;-6.00
66726;HTU21D;53638;51.062;5.804;2024-03-08T06:31:04;3.52;-6.00
66726;HTU21D;53638;51.062;5.804;2024-03-08T06:33:31;3.61;-6.00
66726;HTU21D;53638;51.062;5.804;2024-03-08T06:35:58;3.59;-6.00
66726;HTU21D;53638;51.062;5.804;2024-03-08T06:38:24;3.64;-6.00
66726;HTU21D;53638;51.062;5.804;2024-03-08T06:40:51;3.73;-6.00
66726;HTU21D;53638;51.062;5.804;2024-03-08T06:43:18;3.77;-6.00
66726;HTU21D;53638;51.062;5.804;2024-03-08T06:45:45;3.90;-6.00
66726;HTU21D;53638;51.062;5.804;2024-03-08T06:48:17;3.98;-6.00
66726;HTU21D;53638;51.062;5.804;2024-03-08T06:50:45;4.04;-6.00
66726;HTU21D;53638;51.062;5.804;2024-03-08T06:53:12;4.05;-6.00
66726;HTU21D;53638;51.062;5.804;2024-03-08T06:55:38;4.07;-6.00
66726;HTU21D;53638;51.062;5.804;2024-03-08T06:58:04;4.08;-6.00
66726;HTU21D;53638;51.062;5.804;2024-03-08T07:00:30;4.12;-6.00
66726;HTU21D;53638;51.062;5.804;2024-03-08T07:02:56;4.13;-6.00
66726;HTU21D;53638;51.062;5.804;2024-03-08T07:05:27;4.21;-6.00
66726;HTU21D;53638;51.062;5.804;2024-03-08T07:07:53;4.31;-6.00
66726;HTU21D;53638;51.062;5.804;2024-03-08T07:10:21;4.42;-6.00
66726;HTU21D;53638;51.062;5.804;2024-03-08T07:12:50;4.53;-6.00
66726;HTU21D;53638;51.062;5.804;2024-03-08T07:15:16;4.62;-6.00
66726;HTU21D;53638;51.062;5.804;2024-03-08T07:18:00;4.68;-6.00
66726;HTU21D;53638;51.062;5.804;2024-03-08T07:20:28;4.71;-6.00
66726;HTU21D;53638;51.062;5.804;2024-03-08T07:22:54;4.73;-6.00
66726;HTU21D;53638;51.062;5.804;2024-03-08T07:25:21;4.74;-6.00
66726;HTU21D;53638;51.062;5.804;2024-03-08T07:27:48;4.77;-6.00
66726;HTU21D;53638;51.062;5.804;2024-03-08T07:30:14;4.79;-6.00
66726;HTU21D;53638;51.062;5.804;2024-03-08T07:32:59;4.77;-6.00
66726;HTU21D;53638;51.062;5.804;2024-03-08T07:35:25;4.86;-6.00
66726;HTU21D;53638;51.062;5.804;2024-03-08T07:37:52;4.94;-6.00
66726;HTU21D;53638;51.062;5.804;2024-03-08T07:40:21;5.00;-6.00
66726;HTU21D;53638;51.062;5.804;2024-03-08T07:42:49;5.04;-6.00
66726;HTU21D;53638;51.062;5.804;2024-03-08T07:45:16;5.09;-6.00
66726;HTU21D;53638;51.062;5.804;2024-03-08T07:47:42;5.19;-6.00
66726;HTU21D;53638;51.062;5.804;2024-03-08T07:50:09;5.24;-6.00
66726;HTU21D;53638;51.062;5.804;2024-03-08T07:52:35;5.34;-6.00
66726;HTU21D;53638;51.062;5.804;2024-03-08T07:55:02;5.39;-6.00
66726;HTU21D;53638;51.062;5.804;2024-03-08T07:57:29;5.46;-6.00
66726;HTU21D;53638;51.062;5.804;2024-03-08T07:59:59;5.49;-6.00
66726;HTU21D;53638;51.062;5.804;2024-03-08T08:02:25;5.53;-6.00
66726;HTU21D;53638;51.062;5.804;2024-03-08T08:04:51;5.57;-6.00
66726;HTU21D;53638;51.062;5.804;2024-03-08T08:07:17;5.68;-6.00
66726;HTU21D;53638;51.062;5.804;2024-03-08T08:09:43;5.72;-6.00
66726;HTU21D;53638;51.062;5.804;2024-03-08T08:12:12;5.77;-6.00
66726;HTU21D;53638;51.062;5.804;2024-03-08T08:14:39;5.79;-6.00
66726;HTU21D;53638;51.062;5.804;2024-03-08T08:17:05;5.78;-6.00
66726;HTU21D;53638;51.062;5.804;2024-03-08T08:19:35;5.81;-6.00
66726;HTU21D;53638;51.062;5.804;2024-03-08T08:22:02;5.81;-6.00
66726;HTU21D;53638;51.062;5.804;2024-03-08T08:24:30;5.89;-6.00
66726;HTU21D;53638;51.062;5.804;2024-03-08T08:26:56;5.95;-6.00
66726;HTU21D;53638;51.062;5.804;2024-03-08T08:29:22;6.02;-6.00
66726;HTU21D;53638;51.062;5.804;2024-03-08T08:31:48;6.02;-6.00
66726;HTU21D;53638;51.062;5.804;2024-03-08T08:34:16;6.10;-6.00
66726;HTU21D;53638;51.062;5.804;2024-03-08T08:36:45;6.17;-6.00
66726;HTU21D;53638;51.062;5.804;2024-03-08T08:39:11;6.20;-6.00
66726;HTU21D;53638;51.062;5.804;2024-03-08T08:41:39;6.26;-6.00
66726;HTU21D;53638;51.062;5.804;2024-03-08T08:44:07;6.28;-6.00
66726;HTU21D;53638;51.062;5.804;2024-03-08T08:46:36;6.30;-6.00
66726;HTU21D;53638;51.062;5.804;2024-03-08T08:49:05;6.34;-6.00
66726;HTU21D;53638;51.062;5.804;2024-03-08T08:51:34;6.35;-6.00
66726;HTU21D;53638;51.062;5.804;2024-03-08T08:54:00;6.48;-6.00
66726;HTU21D;53638;51.062;5.804;2024-03-08T08:56:26;6.56;-6.00
66726;HTU21D;53638;51.062;5.804;2024-03-08T08:59:20;6.64;-6.00
66726;HTU21D;53638;51.062;5.804;2024-03-08T09:01:49;6.68;-6.00
66726;HTU21D;53638;51.062;5.804;2024-03-08T09:04:24;6.76;-6.00
66726;HTU21D;53638;51.062;5.804;2024-03-08T09:06:57;6.82;-6.00
66726;HTU21D;53638;51.062;5.804;2024-03-08T09:09:23;6.86;-6.00
66726;HTU21D;53638;51.062;5.804;2024-03-08T09:11:51;6.95;-6.00
66726;HTU21D;53638;51.062;5.804;2024-03-08T09:14:17;7.04;-6.00
66726;HTU21D;53638;51.062;5.804;2024-03-08T09:16:50;7.11;-6.00
66726;HTU21D;53638;51.062;5.804;2024-03-08T09:19:16;7.14;-6.00
66726;HTU21D;53638;51.062;5.804;2024-03-08T09:21:43;7.20;-6.00
66726;HTU21D;53638;51.062;5.804;2024-03-08T09:24:16;7.24;-6.00
66726;HTU21D;53638;51.062;5.804;2024-03-08T09:26:42;7.38;-6.00
66726;HTU21D;53638;51.062;5.804;2024-03-08T09:29:09;7.48;-6.00
66726;HTU21D;53638;51.062;5.804;2024-03-08T09:31:36;7.60;-6.00
66726;HTU21D;53638;51.062;5.804;2024-03-08T09:34:04;7.60;-6.00
66726;HTU21D;53638;51.062;5.804;2024-03-08T09:36:30;7.65;-6.00
66726;HTU21D;53638;51.062;5.804;2024-03-08T09:38:58;7.69;-6.00
66726;HTU21D;53638;51.062;5.804;2024-03-08T09:41:24;7.77;-6.00
66726;HTU21D;53638;51.062;5.804;2024-03-08T09:43:50;7.85;-6.00
66726;HTU21D;53638;51.062;5.804;2024-03-08T09:46:19;7.89;-6.00
66726;HTU21D;53638;51.062;5.804;2024-03-08T09:48:45;7.87;-6.00
66726;HTU21D;53638;51.062;5.804;2024-03-08T09:51:12;7.89;-6.00
66726;HTU21D;53638;51.062;5.804;2024-03-08T09:53:41;7.97;-6.00
66726;HTU21D;53638;51.062;5.804;2024-03-08T09:56:17;8.09;-6.00
66726;HTU21D;53638;51.062;5.804;2024-03-08T09:58:43;8.22;-6.00
66726;HTU21D;53638;51.062;5.804;2024-03-08T10:01:42;8.34;-6.00
66726;HTU21D;53638;51.062;5.804;2024-03-08T10:04:12;8.32;-6.00
66726;HTU21D;53638;51.062;5.804;2024-03-08T10:06:40;8.43;-6.00
66726;HTU21D;53638;51.062;5.804;2024-03-08T10:09:06;8.48;-6.00
66726;HTU21D;53638;51.062;5.804;2024-03-08T10:11:33;8.56;-6.00
66726;HTU21D;53638;51.062;5.804;2024-03-08T10:14:01;8.58;-6.00
66726;HTU21D;53638;51.062;5.804;2024-03-08T10:16:30;8.60;-6.00
66726;HTU21D;53638;51.062;5.804;2024-03-08T10:18:56;8.67;-6.00
66726;HTU21D;53638;51.062;5.804;2024-03-08T10:21:23;8.81;-6.00
66726;HTU21D;53638;51.062;5.804;2024-03-08T10:23:58;8.93;-6.00
66726;HTU21D;53638;51.062;5.804;2024-03-08T10:26:25;9.05;-6.00
66726;HTU21D;53638;51.062;5.804;2024-03-08T10:28:52;9.10;-6.00
66726;HTU21D;53638;51.062;5.804;2024-03-08T10:31:19;9.18;-6.00
66726;HTU21D;53638;51.062;5.804;2024-03-08T10:33:46;9.23;-6.00
66726;HTU21D;53638;51.062;5.804;2024-03-08T10:36:14;9.31;-6.00
66726;HTU21D;53638;51.062;5.804;2024-03-08T10:38:43;9.40;-6.00
66726;HTU21D;53638;51.062;5.804;2024-03-08T10:41:16;9.49;-6.00
66726;HTU21D;53638;51.062;5.804;2024-03-08T10:44:16;9.59;-6.00
66726;HTU21D;53638;51.062;5.804;2024-03-08T10:47:02;9.66;-6.00
66726;HTU21D;53638;51.062;5.804;2024-03-08T10:52:30;9.86;-6.00
66726;HTU21D;53638;51.062;5.804;2024-03-08T10:55:22;9.93;-6.00
66726;HTU21D;53638;51.062;5.804;2024-03-08T10:57:49;10.11;-6.00
66726;HTU21D;53638;51.062;5.804;2024-03-08T11:00:15;10.27;-6.00
66726;HTU21D;53638;51.062;5.804;2024-03-08T11:02:44;10.50;-6.00
66726;HTU21D;53638;51.062;5.804;2024-03-08T11:05:16;11.78;-6.00
66726;HTU21D;53638;51.062;5.804;2024-03-08T11:07:56;14.41;-6.00
66726;HTU21D;53638;51.062;5.804;2024-03-08T11:10:23;16.08;-6.00
66726;HTU21D;53638;51.062;5.804;2024-03-08T11:12:51;17.52;-6.00
66726;HTU21D;53638;51.062;5.804;2024-03-08T11:15:17;18.61;-6.00
66726;HTU21D;53638;51.062;5.804;2024-03-08T11:17:51;19.32;-6.00
66726;HTU21D;53638;51.062;5.804;2024-03-08T11:20:19;19.80;-6.00
66726;HTU21D;53638;51.062;5.804;2024-03-08T11:22:51;20.07;-6.00
66726;HTU21D;53638;51.062;5.804;2024-03-08T11:25:40;20.65;-6.00
66726;HTU21D;53638;51.062;5.804;2024-03-08T11:28:18;20.80;-6.00
66726;HTU21D;53638;51.062;5.804;2024-03-08T11:30:55;21.07;-6.00
66726;HTU21D;53638;51.062;5.804;2024-03-08T11:33:36;21.48;-6.00
66726;HTU21D;53638;51.062;5.804;2024-03-08T11:36:10;21.52;-6.00
66726;HTU21D;53638;51.062;5.804;2024-03-08T11:38:41;21.73;-6.00
66726;HTU21D;53638;51.062;5.804;2024-03-08T11:41:07;21.95;-6.00
66726;HTU21D;53638;51.062;5.804;2024-03-08T11:43:34;22.33;-6.00
66726;HTU21D;53638;51.062;5.804;2024-03-08T11:46:12;22.97;-6.00
66726;HTU21D;53638;51.062;5.804;2024-03-08T11:48:40;23.62;-6.00
66726;HTU21D;53638;51.062;5.804;2024-03-08T11:51:13;23.97;-6.00
66726;HTU21D;53638;51.062;5.804;2024-03-08T11:53:41;24.14;-6.00
66726;HTU21D;53638;51.062;5.804;2024-03-08T11:56:08;24.65;-6.00
66726;HTU21D;53638;51.062;5.804;2024-03-08T11:58:35;25.00;-6.00
66726;HTU21D;53638;51.062;5.804;2024-03-08T12:01:08;25.13;-6.00
66726;HTU21D;53638;51.062;5.804;2024-03-08T12:03:55;25.52;-6.00
66726;HTU21D;53638;51.062;5.804;2024-03-08T12:06:25;25.62;-6.00
66726;HTU21D;53638;51.062;5.804;2024-03-08T12:08:51;25.51;-6.00
66726;HTU21D;53638;51.062;5.804;2024-03-08T12:11:18;25.34;-6.00
66726;HTU21D;53638;51.062;5.804;2024-03-08T12:13:49;25.10;-6.00
66726;HTU21D;53638;51.062;5.804;2024-03-08T12:16:17;25.43;-6.00
66726;HTU21D;53638;51.062;5.804;2024-03-08T12:18:44;25.33;-6.00
66726;HTU21D;53638;51.062;5.804;2024-03-08T12:21:13;25.03;-6.00
66726;HTU21D;53638;51.062;5.804;2024-03-08T12:23:44;24.98;-6.00
66726;HTU21D;53638;51.062;5.804;2024-03-08T12:26:15;25.07;-6.00
66726;HTU21D;53638;51.062;5.804;2024-03-08T12:28:43;24.76;-6.00
66726;HTU21D;53638;51.062;5.804;2024-03-08T12:31:12;24.59;-6.00
66726;HTU21D;53638;51.062;5.804;2024-03-08T12:33:52;24.64;-6.00
66726;HTU21D;53638;51.062;5.804;2024-03-08T12:36:19;24.86;-6.00
66726;HTU21D;53638;51.062;5.804;2024-03-08T12:38:47;24.82;-6.00
66726;HTU21D;53638;51.062;5.804;2024-03-08T12:41:16;24.58;-6.00
66726;HTU21D;53638;51.062;5.804;2024-03-08T12:43:43;24.66;-6.00
66726;HTU21D;53638;51.062;5.804;2024-03-08T12:46:18;24.62;-6.00
66726;HTU21D;53638;51.062;5.804;2024-03-08T12:48:49;24.97;-6.00
66726;HTU21D;53638;51.062;5.804;2024-03-08T12:51:17;25.42;-6.00
66726;HTU21D;53638;51.062;5.804;2024-03-08T12:53:45;25.50;-6.00
66726;HTU21D;53638;51.062;5.804;2024-03-08T12:56:19;25.75;-6.00
66726;HTU21D;53638;51.062;5.804;2024-03-08T12:58:45;26.21;-6.00
66726;HTU21D;53638;51.062;5.804;2024-03-08T13:01:11;26.24;-6.00
66726;HTU21D;53638;51.062;5.804;2024-03-08T13:03:37;25.92;-6.00
66726;HTU21D;53638;51.062;5.804;2024-03-08T13:06:04;25.80;-6.00
66726;HTU21D;53638;51.062;5.804;2024-03-08T13:08:35;26.06;-6.00
66726;HTU21D;53638;51.062;5.804;2024-03-08T13:11:03;26.62;-6.00
66726;HTU21D;53638;51.062;5.804;2024-03-08T13:13:29;26.75;-6.00
66726;HTU21D;53638;51.062;5.804;2024-03-08T13:15:55;27.34;-6.00
66726;HTU21D;53638;51.062;5.804;2024-03-08T13:18:22;27.80;-6.00
66726;HTU21D;53638;51.062;5.804;2024-03-08T13:20:49;27.83;-6.00
66726;HTU21D;53638;51.062;5.804;2024-03-08T13:23:20;27.80;-6.00
66726;HTU21D;53638;51.062;5.804;2024-03-08T13:25:47;27.21;-6.00
66726;HTU21D;53638;51.062;5.804;2024-03-08T13:28:13;27.50;-6.00
66726;HTU21D;53638;51.062;5.804;2024-03-08T13:30:39;28.14;-6.00
66726;HTU21D;53638;51.062;5.804;2024-03-08T13:33:05;28.64;-6.00
66726;HTU21D;53638;51.062;5.804;2024-03-08T13:35:32;28.83;-6.00
66726;HTU21D;53638;51.062;5.804;2024-03-08T13:38:00;28.94;-6.00
66726;HTU21D;53638;51.062;5.804;2024-03-08T13:40:31;28.42;-6.00
66726;HTU21D;53638;51.062;5.804;2024-03-08T13:42:57;27.72;-6.00
66726;HTU21D;53638;51.062;5.804;2024-03-08T13:45:24;27.45;-6.00
66726;HTU21D;53638;51.062;5.804;2024-03-08T13:47:50;27.56;-6.00
66726;HTU21D;53638;51.062;5.804;2024-03-08T13:50:17;27.86;-6.00
66726;HTU21D;53638;51.062;5.804;2024-03-08T13:52:48;28.32;-6.00
66726;HTU21D;53638;51.062;5.804;2024-03-08T13:55:23;28.33;-6.00
66726;HTU21D;53638;51.062;5.804;2024-03-08T13:57:52;28.77;-6.00
66726;HTU21D;53638;51.062;5.804;2024-03-08T14:00:19;29.21;-6.00
66726;HTU21D;53638;51.062;5.804;2024-03-08T14:02:53;28.63;-6.00
66726;HTU21D;53638;51.062;5.804;2024-03-08T14:05:20;28.63;-6.00
66726;HTU21D;53638;51.062;5.804;2024-03-08T14:07:46;28.57;-6.00
66726;HTU21D;53638;51.062;5.804;2024-03-08T14:10:15;28.29;-6.00
66726;HTU21D;53638;51.062;5.804;2024-03-08T14:12:41;27.81;-6.00
66726;HTU21D;53638;51.062;5.804;2024-03-08T14:15:09;28.01;-6.00
66726;HTU21D;53638;51.062;5.804;2024-03-08T14:17:36;27.71;-6.00
66726;HTU21D;53638;51.062;5.804;2024-03-08T14:20:03;27.60;-6.00
66726;HTU21D;53638;51.062;5.804;2024-03-08T14:22:29;27.88;-6.00
66726;HTU21D;53638;51.062;5.804;2024-03-08T14:24:57;28.65;-6.00
66726;HTU21D;53638;51.062;5.804;2024-03-08T14:27:23;29.36;-6.00
66726;HTU21D;53638;51.062;5.804;2024-03-08T14:29:49;29.46;-6.00
66726;HTU21D;53638;51.062;5.804;2024-03-08T14:32:15;29.03;-6.00
66726;HTU21D;53638;51.062;5.804;2024-03-08T14:34:45;28.43;-6.00
66726;HTU21D;53638;51.062;5.804;2024-03-08T14:37:11;28.16;-6.00
66726;HTU21D;53638;51.062;5.804;2024-03-08T14:39:39;27.84;-6.00
66726;HTU21D;53638;51.062;5.804;2024-03-08T14:42:05;28.08;-6.00
66726;HTU21D;53638;51.062;5.804;2024-03-08T14:44:34;28.03;-6.00
66726;HTU21D;53638;51.062;5.804;2024-03-08T14:47:09;27.40;-6.00
66726;HTU21D;53638;51.062;5.804;2024-03-08T14:49:36;27.34;-6.00
66726;HTU21D;53638;51.062;5.804;2024-03-08T14:52:02;27.89;-6.00
66726;HTU21D;53638;51.062;5.804;2024-03-08T14:54:28;28.15;-6.00
66726;HTU21D;53638;51.062;5.804;2024-03-08T14:56:54;27.41;-6.00
66726;HTU21D;53638;51.062;5.804;2024-03-08T14:59:22;27.32;-6.00
66726;HTU21D;53638;51.062;5.804;2024-03-08T15:01:48;27.69;-6.00
66726;HTU21D;53638;51.062;5.804;2024-03-08T15:04:14;27.67;-6.00
66726;HTU21D;53638;51.062;5.804;2024-03-08T15:06:41;27.45;-6.00
66726;HTU21D;53638;51.062;5.804;2024-03-08T15:09:14;25.95;-6.00
66726;HTU21D;53638;51.062;5.804;2024-03-08T15:11:46;25.38;-6.00
66726;HTU21D;53638;51.062;5.804;2024-03-08T15:14:14;24.98;-6.00
66726;HTU21D;53638;51.062;5.804;2024-03-08T15:16:42;25.29;-6.00
66726;HTU21D;53638;51.062;5.804;2024-03-08T15:19:09;25.25;-6.00
66726;HTU21D;53638;51.062;5.804;2024-03-08T15:21:37;25.39;-6.00
66726;HTU21D;53638;51.062;5.804;2024-03-08T15:24:04;24.89;-6.00
66726;HTU21D;53638;51.062;5.804;2024-03-08T15:26:30;24.44;-6.00
66726;HTU21D;53638;51.062;5.804;2024-03-08T15:28:57;24.89;-6.00
66726;HTU21D;53638;51.062;5.804;2024-03-08T15:31:23;25.38;-6.00
66726;HTU21D;53638;51.062;5.804;2024-03-08T15:33:52;24.90;-6.00
66726;HTU21D;53638;51.062;5.804;2024-03-08T15:36:24;24.31;-6.00